createdAt,value
2019-03-01T00:02:48.372Z,100458.28
2019-03-01T00:07:37.369Z,100441.47
2019-03-01T00:11:53.150Z,100443.28
2019-03-01T00:16:11.461Z,100438.10
2019-03-01T00:20:52.195Z,100434.53
2019-03-01T00:25:09.328Z,100440.63
2019-03-01T00:29:51.353Z,100428.69
2019-03-01T00:34:40.155Z,100422.52
2019-03-01T00:39:18.789Z,100430.30
2019-03-01T00:43:59.663Z,100429.00
2019-03-01T00:48:04.841Z,100424.67
2019-03-01T00:52:10.353Z,100409.27
2019-03-01T00:56:15.487Z,100410.18
2019-03-01T01:00:43.100Z,100412.90
2019-03-01T01:04:48.244Z,100390.08
2019-03-01T01:08:53.346Z,100390.08
2019-03-01T01:12:58.524Z,100388.94
2019-03-01T01:17:03.605Z,100386.13
2019-03-01T01:21:08.744Z,100375.05
2019-03-01T01:25:13.939Z,100373.33
2019-03-01T01:29:19.110Z,100373.33
2019-03-01T01:33:24.281Z,100367.31
2019-03-01T01:37:29.441Z,100364.91
2019-03-01T01:41:34.597Z,100365.56
2019-03-01T01:45:39.707Z,100359.54
2019-03-01T01:49:45.105Z,100350.98
2019-03-01T01:53:50.553Z,100342.44
2019-03-01T01:57:55.698Z,100342.44
2019-03-01T02:02:01.759Z,100341.21
2019-03-01T02:06:07.012Z,100341.30
2019-03-01T02:10:12.105Z,100341.95
2019-03-01T02:14:17.166Z,100341.95
2019-03-01T02:18:22.220Z,100334.81
2019-03-01T02:22:27.413Z,100331.80
2019-03-01T02:26:32.552Z,100331.80
2019-03-01T02:30:37.706Z,100331.98
2019-03-01T02:34:42.716Z,100322.98
2019-03-01T02:38:47.909Z,100316.67
2019-03-01T02:42:53.420Z,100313.28
2019-03-01T02:46:58.557Z,100315.06
2019-03-01T02:51:03.619Z,100313.38
2019-03-01T02:55:09.613Z,100309.14
2019-03-01T02:59:14.755Z,100295.20
2019-03-01T03:03:19.914Z,100295.20
2019-03-01T03:07:32.910Z,100297.16
2019-03-01T03:11:37.987Z,100295.38
2019-03-01T03:15:45.565Z,100292.55
2019-03-01T03:19:50.674Z,100286.35
2019-03-01T03:23:55.819Z,100280.34
2019-03-01T03:28:00.916Z,100288.25
2019-03-01T03:32:05.991Z,100287.00
2019-03-01T03:36:11.068Z,100285.50
2019-03-01T03:40:16.488Z,100283.34
2019-03-01T03:44:21.567Z,100286.47
2019-03-01T03:48:26.794Z,100286.47
2019-03-01T03:52:31.944Z,100282.79
2019-03-01T03:56:37.077Z,100281.65
2019-03-01T04:00:42.298Z,100287.78
2019-03-01T04:04:47.369Z,100280.34
2019-03-01T04:08:52.577Z,100277.23
2019-03-01T04:12:58.569Z,100280.07
2019-03-01T04:17:03.754Z,100280.07
2019-03-01T04:21:08.837Z,100280.34
2019-03-01T04:25:14.001Z,100283.45
2019-03-01T04:29:19.005Z,100283.37
2019-03-01T04:33:24.041Z,100283.37
2019-03-01T04:37:29.156Z,100283.84
2019-03-01T04:41:34.206Z,100290.50
2019-03-01T04:45:39.417Z,100281.85
2019-03-01T04:49:46.271Z,100284.77
2019-03-01T04:53:51.482Z,100285.23
2019-03-01T04:57:56.624Z,100283.44
2019-03-01T05:02:01.817Z,100289.27
2019-03-01T05:06:06.951Z,100289.27
2019-03-01T05:10:12.319Z,100285.03
2019-03-01T05:14:17.515Z,100288.13
2019-03-01T05:18:22.685Z,100290.17
2019-03-01T05:22:27.720Z,100290.56
2019-03-01T05:26:32.804Z,100296.38
2019-03-01T05:30:37.885Z,100302.21
2019-03-01T05:34:43.032Z,100302.21
2019-03-01T05:38:48.110Z,100313.38
2019-03-01T05:42:53.316Z,100317.57
2019-03-01T05:47:00.753Z,100318.33
2019-03-01T05:51:05.874Z,100330.01
2019-03-01T05:55:11.126Z,100330.01
2019-03-01T05:59:21.656Z,100337.52
2019-03-01T06:03:56.158Z,100329.88
2019-03-01T06:08:39.500Z,100341.16
2019-03-01T06:13:23.180Z,100337.89
2019-03-01T06:17:57.802Z,100341.08
2019-03-01T06:22:56.249Z,100348.78
2019-03-01T06:27:46.088Z,100357.95
2019-03-01T06:32:34.912Z,100364.47
2019-03-01T06:37:03.984Z,100372.19
2019-03-01T06:41:35.281Z,100375.28
2019-03-01T06:46:17.389Z,100398.55
2019-03-01T06:50:44.194Z,100398.55
2019-03-01T06:54:49.660Z,100399.27
2019-03-01T06:58:59.913Z,100405.17
2019-03-01T07:03:05.111Z,100407.16
2019-03-01T07:07:10.487Z,100407.55
2019-03-01T07:11:15.853Z,100415.05
2019-03-01T07:15:21.070Z,100425.42
2019-03-01T07:19:26.149Z,100423.87
2019-03-01T07:23:36.808Z,100422.55
2019-03-01T07:27:39.777Z,100429.58
2019-03-01T07:31:44.894Z,100428.48
2019-03-01T07:35:51.016Z,100441.54
2019-03-01T07:39:56.049Z,100446.07
2019-03-01T07:44:01.673Z,100450.63
2019-03-01T07:48:06.786Z,100475.17
2019-03-01T07:52:12.051Z,100479.64
2019-03-01T07:56:17.154Z,100487.81
2019-03-01T08:00:22.362Z,100489.17
2019-03-01T08:04:29.552Z,100496.44
2019-03-01T08:08:34.885Z,100491.89
2019-03-01T08:12:42.500Z,100505.83
2019-03-01T08:16:47.988Z,100510.93
2019-03-01T08:20:53.141Z,100514.58
2019-03-01T08:24:58.285Z,100523.39
2019-03-01T08:29:03.553Z,100532.25
2019-03-01T08:33:08.799Z,100533.70
2019-03-01T08:37:14.513Z,100530.07
2019-03-01T08:41:21.520Z,100543.34
2019-03-01T08:45:29.687Z,100545.89
2019-03-01T08:49:34.809Z,100547.84
2019-03-01T08:53:39.888Z,100549.76
2019-03-01T08:57:44.999Z,100565.25
2019-03-01T09:01:50.206Z,100573.11
2019-03-01T09:05:55.433Z,100564.47
2019-03-01T09:10:00.611Z,100565.46
2019-03-01T09:14:05.782Z,100580.88
2019-03-01T09:18:14.571Z,100586.12
2019-03-01T09:22:19.231Z,100591.02
2019-03-01T09:26:24.533Z,100591.22
2019-03-01T09:30:29.775Z,100596.85
2019-03-01T09:34:34.972Z,100600.47
2019-03-01T09:38:42.920Z,100613.36
2019-03-01T09:42:51.267Z,100614.28
2019-03-01T09:46:54.678Z,100624.78
2019-03-01T09:50:59.857Z,100628.39
2019-03-01T09:55:05.578Z,100629.81
2019-03-01T09:59:11.061Z,100634.73
2019-03-01T10:03:16.251Z,100653.73
2019-03-01T10:07:21.413Z,100664.51
2019-03-01T10:11:26.491Z,100666.53
2019-03-01T10:15:31.665Z,100676.10
2019-03-01T10:19:36.748Z,100676.64
2019-03-01T10:23:41.970Z,100683.20
2019-03-01T10:27:47.384Z,100680.37
2019-03-01T10:31:52.538Z,100680.37
2019-03-01T10:35:57.805Z,100682.85
2019-03-01T10:40:03.916Z,100694.66
2019-03-01T10:44:09.022Z,100699.55
2019-03-01T10:48:14.150Z,100702.04
2019-03-01T10:52:19.229Z,100703.88
2019-03-01T10:56:24.439Z,100709.41
2019-03-01T11:00:29.736Z,100716.18
2019-03-01T11:04:35.002Z,100722.60
2019-03-01T11:08:40.043Z,100719.12
2019-03-01T11:12:45.262Z,100717.16
2019-03-01T11:16:50.722Z,100718.52
2019-03-01T11:20:55.842Z,100719.20
2019-03-01T11:25:00.967Z,100722.33
2019-03-01T11:29:06.126Z,100724.27
2019-03-01T11:33:11.322Z,100735.23
2019-03-01T11:37:16.480Z,100741.89
2019-03-01T11:41:21.616Z,100746.75
2019-03-01T11:45:26.678Z,100749.88
2019-03-01T11:49:31.855Z,100755.80
2019-03-01T11:53:37.043Z,100763.20
2019-03-01T11:57:42.190Z,100758.41
2019-03-01T12:01:47.317Z,100751.07
2019-03-01T12:05:55.727Z,100749.54
2019-03-01T12:10:00.855Z,100747.14
2019-03-01T12:14:06.144Z,100752.63
2019-03-01T12:18:11.336Z,100766.72
2019-03-01T12:22:17.329Z,100768.03
2019-03-01T12:26:22.473Z,100768.25
2019-03-01T12:30:27.688Z,100768.61
2019-03-01T12:34:33.228Z,100788.58
2019-03-01T12:38:39.286Z,100778.42
2019-03-01T12:42:44.406Z,100778.77
2019-03-01T12:46:49.593Z,100786.12
2019-03-01T12:50:55.083Z,100794.56
2019-03-01T12:55:00.436Z,100797.77
2019-03-01T12:59:05.574Z,100814.44
2019-03-01T13:03:10.656Z,100818.91
2019-03-01T13:07:15.765Z,100825.61
2019-03-01T13:11:20.805Z,100828.44
2019-03-01T13:15:28.126Z,100838.47
2019-03-01T13:19:33.246Z,100841.31
2019-03-01T13:23:40.471Z,100852.60
2019-03-01T13:27:48.660Z,100858.11
2019-03-01T13:31:52.301Z,100855.03
2019-03-01T13:35:59.959Z,100863.00
2019-03-01T13:40:06.308Z,100872.61
2019-03-01T13:44:11.728Z,100874.25
2019-03-01T13:48:18.948Z,100874.19
2019-03-01T13:52:26.673Z,100871.08
2019-03-01T13:56:32.799Z,100880.53
2019-03-01T14:00:39.796Z,100877.84
2019-03-01T14:04:44.974Z,100884.28
2019-03-01T14:08:50.086Z,100875.13
2019-03-01T14:12:55.287Z,100886.92
2019-03-01T14:17:00.750Z,100880.83
2019-03-01T14:21:06.324Z,100885.31
2019-03-01T14:25:11.673Z,100888.97
2019-03-01T14:29:17.807Z,100892.32
2019-03-01T14:33:22.996Z,100896.70
2019-03-01T14:37:28.421Z,100897.86
2019-03-01T14:41:35.081Z,100905.72
2019-03-01T14:45:41.658Z,100899.27
2019-03-01T14:49:47.424Z,100902.53
2019-03-01T14:53:52.574Z,100902.53
2019-03-01T14:58:24.521Z,100910.84
2019-03-01T15:02:44.121Z,100918.59
2019-03-01T15:06:51.338Z,100910.80
2019-03-01T15:10:56.294Z,100909.17
2019-03-01T15:15:01.588Z,100911.18
2019-03-01T15:19:09.018Z,100908.97
2019-03-01T15:23:15.514Z,100906.80
2019-03-01T15:27:20.544Z,100916.92
2019-03-01T15:31:25.771Z,100926.37
2019-03-01T15:35:30.897Z,100926.16
2019-03-01T15:39:36.130Z,100927.69
2019-03-01T15:43:41.274Z,100931.03
2019-03-01T15:47:46.859Z,100939.48
2019-03-01T15:51:51.996Z,100935.15
2019-03-01T15:55:57.141Z,100937.11
2019-03-01T16:00:03.449Z,100935.06
2019-03-01T16:04:10.331Z,100949.75
2019-03-01T16:08:15.443Z,100957.56
2019-03-01T16:12:20.531Z,100963.13
2019-03-01T16:16:25.675Z,100963.84
2019-03-01T16:20:30.813Z,100965.54
2019-03-01T16:24:37.566Z,100970.72
2019-03-01T16:28:42.805Z,100975.11
2019-03-01T16:32:50.392Z,100979.80
2019-03-01T16:36:56.963Z,100977.97
2019-03-01T16:41:07.442Z,100982.18
2019-03-01T16:45:09.885Z,100983.78
2019-03-01T16:49:15.404Z,100983.87
2019-03-01T16:53:20.504Z,100994.02
2019-03-01T16:57:25.733Z,100989.80
2019-03-01T17:01:30.880Z,101004.33
2019-03-01T17:05:38.736Z,101000.91
2019-03-01T17:09:47.319Z,100999.08
2019-03-01T17:13:51.705Z,101007.34
2019-03-01T17:17:56.956Z,101012.30
2019-03-01T17:22:03.071Z,101016.17
2019-03-01T17:26:08.173Z,101009.77
2019-03-01T17:30:17.693Z,101017.36
2019-03-01T17:34:25.765Z,101015.65
2019-03-01T17:38:30.069Z,101015.77
2019-03-01T17:42:35.295Z,101015.36
2019-03-01T17:46:40.343Z,101019.01
2019-03-01T17:50:45.682Z,101036.44
2019-03-01T17:54:51.941Z,101039.58
2019-03-01T17:58:57.136Z,101046.59
2019-03-01T18:03:02.525Z,101043.97
2019-03-01T18:07:07.731Z,101038.31
2019-03-01T18:11:12.867Z,101051.83
2019-03-01T18:15:18.031Z,101053.81
2019-03-01T18:19:23.789Z,101053.63
2019-03-01T18:23:29.979Z,101062.01
2019-03-01T18:27:35.094Z,101060.76
2019-03-01T18:31:40.482Z,101070.03
2019-03-01T18:35:45.728Z,101068.72
2019-03-01T18:39:50.835Z,101071.28
2019-03-01T18:43:55.982Z,101075.08
2019-03-01T18:48:01.106Z,101071.79
2019-03-01T18:52:06.228Z,101078.23
2019-03-01T18:56:11.697Z,101076.63
2019-03-01T19:00:22.360Z,101075.27
2019-03-01T19:04:29.651Z,101081.36
2019-03-01T19:08:36.460Z,101073.26
2019-03-01T19:12:44.941Z,101085.69
2019-03-01T19:16:48.697Z,101087.91
2019-03-01T19:20:53.894Z,101082.47
2019-03-01T19:24:59.083Z,101078.23
2019-03-01T19:29:05.228Z,101075.56
2019-03-01T19:33:10.405Z,101069.67
2019-03-01T19:37:15.636Z,101083.06
2019-03-01T19:41:22.941Z,101079.89
2019-03-01T19:45:27.591Z,101073.95
2019-03-01T19:49:34.136Z,101081.81
2019-03-01T19:53:39.334Z,101073.26
2019-03-01T19:57:44.439Z,101073.81
2019-03-01T20:01:52.385Z,101074.97
2019-03-01T20:05:56.420Z,101074.02
2019-03-01T20:10:01.533Z,101084.72
2019-03-01T20:14:11.960Z,101074.25
2019-03-01T20:18:23.518Z,101087.27
2019-03-01T20:22:27.874Z,101087.74
2019-03-01T20:26:39.509Z,101086.44
2019-03-01T20:30:41.064Z,101089.78
2019-03-01T20:34:46.218Z,101090.06
2019-03-01T20:38:51.313Z,101085.84
2019-03-01T20:43:06.608Z,101084.43
2019-03-01T20:47:06.395Z,101079.77
2019-03-01T20:51:17.360Z,101081.82
2019-03-01T20:55:26.132Z,101083.29
2019-03-01T20:59:32.880Z,101083.41
2019-03-01T21:03:38.087Z,101074.88
2019-03-01T21:07:43.384Z,101081.17
2019-03-01T21:11:52.108Z,101086.03
2019-03-01T21:15:58.222Z,101091.13
2019-03-01T21:20:04.688Z,101087.74
2019-03-01T21:24:10.300Z,101092.28
2019-03-01T21:28:15.418Z,101092.28
2019-03-01T21:32:20.484Z,101101.67
2019-03-01T21:36:27.123Z,101083.80
2019-03-01T21:40:34.587Z,101086.14
2019-03-01T21:44:42.589Z,101085.34
2019-03-01T21:48:46.345Z,101088.08
2019-03-01T21:52:51.558Z,101085.18
2019-03-01T21:56:57.093Z,101079.54
2019-03-01T22:01:02.663Z,101083.34
2019-03-01T22:05:10.357Z,101087.34
2019-03-01T22:09:16.806Z,101083.41
2019-03-01T22:13:21.902Z,101084.33
2019-03-01T22:17:27.261Z,101083.69
2019-03-01T22:21:32.428Z,101083.53
2019-03-01T22:25:37.901Z,101085.96
2019-03-01T22:29:43.596Z,101088.13
2019-03-01T22:33:55.873Z,101095.66
2019-03-01T22:38:05.497Z,101091.48
2019-03-01T22:42:15.781Z,101094.61
2019-03-01T22:46:27.997Z,101085.73
2019-03-01T22:50:39.499Z,101076.67
2019-03-01T22:54:46.036Z,101080.09
2019-03-01T22:58:54.777Z,101075.31
2019-03-01T23:02:59.984Z,101077.88
2019-03-01T23:07:05.270Z,101070.32
2019-03-01T23:11:15.928Z,101068.31
2019-03-01T23:15:27.642Z,101056.94
2019-03-01T23:19:30.918Z,101060.06
2019-03-01T23:23:38.863Z,101060.75
2019-03-01T23:27:43.976Z,101059.45
2019-03-01T23:31:49.109Z,101060.97
2019-03-01T23:35:54.319Z,101057.33
2019-03-01T23:40:00.986Z,101054.98
2019-03-01T23:44:17.303Z,101047.59
2019-03-01T23:48:22.405Z,101046.27
2019-03-01T23:52:27.523Z,101045.81
2019-03-01T23:56:32.636Z,101042.02
